Time;durP1;ratioP1;P1;durP2;ratioP2;P2;SDS_P1;SDS_P2;PMS_P1;PMS_P2;Temp;Humidity;BMP_temperature;BMP_pressure;BME280_temperature;BME280_humidity;BME280_pressure;Samples;Min_cycle;Max_cycle;Signal;HPM_P1;HPM_P2
2022/06/07 00:00:10;;;;;;;;;;;12.30;99.90;;;;;;5088768;28;20450;-72
2022/06/07 00:02:37;;;;;;;;;;;12.20;99.90;;;;;;5090041;28;19956;-71
2022/06/07 00:05:04;;;;;;;;;;;12.20;99.90;;;;;;5090983;28;20002;-72
2022/06/07 00:07:31;;;;;;;;;;;12.20;99.90;;;;;;5088865;28;20011;-72
2022/06/07 00:09:57;;;;;;;;;;;12.20;99.90;;;;;;5093136;28;20513;-73
2022/06/07 00:12:24;;;;;;;;;;;12.10;99.90;;;;;;5088625;28;19924;-73
2022/06/07 00:14:53;;;;;;;;;;;12.10;99.90;;;;;;5087724;28;19967;-73
2022/06/07 00:17:20;;;;;;;;;;;12.10;99.90;;;;;;5102813;28;19928;-73
2022/06/07 00:19:47;;;;;;;;;;;12.10;99.90;;;;;;5092590;28;20018;-74
2022/06/07 00:22:13;;;;;;;;;;;12.10;99.90;;;;;;5094394;28;19924;-73
2022/06/07 00:24:40;;;;;;;;;;;12.10;99.90;;;;;;5092404;28;20000;-73
2022/06/07 00:27:07;;;;;;;;;;;12.10;99.90;;;;;;5089677;28;19932;-73
2022/06/07 00:29:34;;;;;;;;;;;12.20;99.90;;;;;;5092351;28;20011;-74
2022/06/07 00:32:02;;;;;;;;;;;12.10;99.90;;;;;;5095548;28;20435;-74
2022/06/07 00:34:29;;;;;;;;;;;12.10;99.90;;;;;;5083138;28;19928;-74
2022/06/07 00:36:56;;;;;;;;;;;12.10;99.90;;;;;;5094643;28;19943;-73
2022/06/07 00:39:22;;;;;;;;;;;12.10;99.90;;;;;;5094867;28;20023;-73
2022/06/07 00:41:49;;;;;;;;;;;12.20;99.90;;;;;;5093254;28;19924;-73
2022/06/07 00:44:32;;;;;;;;;;;12.10;99.90;;;;;;5091614;28;20030;-74
2022/06/07 00:47:00;;;;;;;;;;;12.10;99.90;;;;;;5092531;28;20539;-73
2022/06/07 00:49:30;;;;;;;;;;;12.10;99.90;;;;;;5079234;28;19929;-72
2022/06/07 00:51:57;;;;;;;;;;;12.10;99.90;;;;;;5077004;28;19924;-72
2022/06/07 00:54:25;;;;;;;;;;;12.00;99.90;;;;;;5086567;28;20010;-72
2022/06/07 00:56:52;;;;;;;;;;;12.00;99.90;;;;;;5088627;28;19936;-73
2022/06/07 00:59:19;;;;;;;;;;;12.00;99.90;;;;;;5089000;28;20027;-73
2022/06/07 01:01:46;;;;;;;;;;;12.00;99.90;;;;;;5092671;28;19931;-74
2022/06/07 01:04:13;;;;;;;;;;;12.00;99.90;;;;;;5092673;28;20422;-73
2022/06/07 01:12:10;;;;;;;;;;;12.00;99.90;;;;;;5082137;28;19955;-73
2022/06/07 01:14:37;;;;;;;;;;;12.00;99.90;;;;;;5085368;28;19924;-74
2022/06/07 01:17:04;;;;;;;;;;;12.00;99.90;;;;;;5078708;28;19964;-74
2022/06/07 01:19:31;;;;;;;;;;;11.90;99.90;;;;;;5080718;28;20026;-74
2022/06/07 01:21:59;;;;;;;;;;;11.90;99.90;;;;;;5090525;28;19969;-74
2022/06/07 01:24:26;;;;;;;;;;;11.90;99.90;;;;;;5085917;28;20339;-73
2022/06/07 01:26:53;;;;;;;;;;;11.90;99.90;;;;;;5081309;28;19924;-72
2022/06/07 01:29:20;;;;;;;;;;;11.90;99.90;;;;;;5086862;28;19970;-74
2022/06/07 01:31:47;;;;;;;;;;;11.90;99.90;;;;;;5089491;28;19924;-72
2022/06/07 01:34:13;;;;;;;;;;;11.90;99.90;;;;;;5092289;28;19924;-72
2022/06/07 01:36:40;;;;;;;;;;;11.80;99.90;;;;;;5092473;28;20471;-73
2022/06/07 01:41:56;;;;;;;;;;;11.80;99.90;;;;;;5078080;28;20298;-73
2022/06/07 01:44:22;;;;;;;;;;;11.70;99.90;;;;;;5096453;28;20569;-74
2022/06/07 01:46:49;;;;;;;;;;;11.70;99.90;;;;;;5085782;28;19970;-74
2022/06/07 01:49:17;;;;;;;;;;;11.70;99.90;;;;;;5096215;28;19928;-74
2022/06/07 01:51:43;;;;;;;;;;;11.70;99.90;;;;;;5072596;28;19971;-73
2022/06/07 01:54:12;;;;;;;;;;;11.70;99.90;;;;;;5086802;28;20592;-74
2022/06/07 01:56:39;;;;;;;;;;;11.70;99.90;;;;;;5074209;28;19967;-74
2022/06/07 01:59:06;;;;;;;;;;;11.60;99.90;;;;;;5073653;28;19928;-74
2022/06/07 02:01:33;;;;;;;;;;;11.60;99.90;;;;;;5077303;28;20016;-73
2022/06/07 02:03:59;;;;;;;;;;;11.60;99.90;;;;;;5088247;28;20015;-73
2022/06/07 02:06:26;;;;;;;;;;;11.60;99.90;;;;;;5091871;28;20031;-73
2022/06/07 02:08:53;;;;;;;;;;;11.60;99.90;;;;;;5093194;28;19930;-73
2022/06/07 02:11:23;;;;;;;;;;;11.60;99.90;;;;;;5100002;28;20402;-73
2022/06/07 02:13:50;;;;;;;;;;;11.60;99.90;;;;;;5083361;28;20403;-73
2022/06/07 02:16:17;;;;;;;;;;;11.50;99.90;;;;;;5084499;28;19977;-73
2022/06/07 02:18:43;;;;;;;;;;;11.50;99.90;;;;;;5085887;28;20002;-73
2022/06/07 02:21:10;;;;;;;;;;;11.50;99.90;;;;;;5084624;28;19925;-73
2022/06/07 02:23:38;;;;;;;;;;;11.50;99.90;;;;;;5107950;28;19949;-74
2022/06/07 02:26:07;;;;;;;;;;;11.50;99.90;;;;;;5076229;28;20345;-74
2022/06/07 02:28:37;;;;;;;;;;;11.40;99.90;;;;;;5085385;28;19967;-74
2022/06/07 02:31:04;;;;;;;;;;;11.40;99.90;;;;;;5103103;28;19923;-74
2022/06/07 02:33:31;;;;;;;;;;;11.40;99.90;;;;;;5089273;28;20391;-74
2022/06/07 02:35:58;;;;;;;;;;;11.40;99.90;;;;;;5090406;28;19975;-74
2022/06/07 02:38:24;;;;;;;;;;;11.40;99.90;;;;;;5079862;28;19924;-74
2022/06/07 02:40:53;;;;;;;;;;;11.30;99.90;;;;;;5098814;28;20561;-73
2022/06/07 02:43:19;;;;;;;;;;;11.30;99.90;;;;;;5090711;28;20272;-75
2022/06/07 02:45:48;;;;;;;;;;;11.30;99.90;;;;;;5081323;28;19959;-73
2022/06/07 02:48:14;;;;;;;;;;;11.30;99.90;;;;;;5090658;28;19924;-73
2022/06/07 02:50:41;;;;;;;;;;;11.30;99.90;;;;;;5081034;28;19924;-74
2022/06/07 02:53:08;;;;;;;;;;;11.30;99.90;;;;;;5083839;28;19963;-74
2022/06/07 02:55:35;;;;;;;;;;;11.30;99.90;;;;;;5088764;28;19959;-73
2022/06/07 02:58:01;;;;;;;;;;;11.30;99.90;;;;;;5097733;28;20010;-73
2022/06/07 03:00:28;;;;;;;;;;;11.30;99.90;;;;;;5083046;28;20344;-73
2022/06/07 03:02:56;;;;;;;;;;;11.30;99.90;;;;;;5074472;28;20016;-72
2022/06/07 03:05:23;;;;;;;;;;;11.30;99.90;;;;;;5086368;28;20442;-72
2022/06/07 03:07:50;;;;;;;;;;;11.30;99.90;;;;;;5091397;28;20019;-72
2022/06/07 03:10:17;;;;;;;;;;;11.30;99.90;;;;;;5081873;28;19928;-73
2022/06/07 03:12:44;;;;;;;;;;;11.40;99.90;;;;;;5084856;28;20331;-73
2022/06/07 03:15:11;;;;;;;;;;;11.40;99.90;;;;;;5085973;28;19931;-73
2022/06/07 03:17:38;;;;;;;;;;;11.40;99.90;;;;;;5084860;28;19979;-73
2022/06/07 03:20:08;;;;;;;;;;;11.30;99.90;;;;;;5084353;28;20243;-73
2022/06/07 03:22:35;;;;;;;;;;;11.40;99.90;;;;;;5077329;28;19928;-73
2022/06/07 03:25:05;;;;;;;;;;;11.40;99.90;;;;;;5081912;28;20023;-74
2022/06/07 03:27:35;;;;;;;;;;;11.40;99.90;;;;;;5088443;28;19928;-73
2022/06/07 03:30:01;;;;;;;;;;;11.40;99.90;;;;;;5084093;28;20011;-73
2022/06/07 03:32:28;;;;;;;;;;;11.50;99.90;;;;;;5070160;28;20014;-74
2022/06/07 03:34:55;;;;;;;;;;;11.50;99.90;;;;;;5082104;28;20406;-72
2022/06/07 03:37:23;;;;;;;;;;;11.50;99.90;;;;;;5088461;28;19930;-73
2022/06/07 03:39:50;;;;;;;;;;;11.50;99.90;;;;;;5098803;28;20398;-72
2022/06/07 03:42:17;;;;;;;;;;;11.50;99.90;;;;;;5074763;28;19925;-72
2022/06/07 03:44:48;;;;;;;;;;;11.40;99.90;;;;;;5087104;28;20379;-72
2022/06/07 03:47:15;;;;;;;;;;;11.50;99.90;;;;;;5086323;28;20298;-72
2022/06/07 03:49:41;;;;;;;;;;;11.50;99.90;;;;;;5089698;28;19977;-72
2022/06/07 03:52:08;;;;;;;;;;;11.50;99.90;;;;;;5090425;28;20023;-73
2022/06/07 03:54:36;;;;;;;;;;;11.50;99.90;;;;;;5071526;28;20020;-73
2022/06/07 03:57:03;;;;;;;;;;;11.60;99.90;;;;;;5076764;28;19925;-73
2022/06/07 03:59:30;;;;;;;;;;;11.60;99.90;;;;;;5082516;28;20466;-73
2022/06/07 04:01:57;;;;;;;;;;;11.60;99.90;;;;;;5086905;28;20375;-73
2022/06/07 04:04:24;;;;;;;;;;;11.70;99.90;;;;;;5076205;28;20033;-73
2022/06/07 04:09:31;;;;;;;;;;;11.70;99.90;;;;;;5075247;28;19925;-72
2022/06/07 04:11:59;;;;;;;;;;;11.80;99.90;;;;;;5079601;28;20046;-71
2022/06/07 04:14:26;;;;;;;;;;;11.80;99.90;;;;;;5086740;28;20331;-71
2022/06/07 04:16:52;;;;;;;;;;;11.80;99.90;;;;;;5084745;28;19931;-71
2022/06/07 04:19:19;;;;;;;;;;;11.90;99.90;;;;;;5084972;28;19963;-72
2022/06/07 04:21:49;;;;;;;;;;;11.90;99.90;;;;;;5084967;28;20011;-71
2022/06/07 04:24:15;;;;;;;;;;;11.90;99.90;;;;;;5081569;28;20019;-71
2022/06/07 04:26:42;;;;;;;;;;;12.00;99.90;;;;;;5085162;28;19967;-71
2022/06/07 04:29:10;;;;;;;;;;;12.00;99.90;;;;;;5084358;28;19924;-70
2022/06/07 04:31:37;;;;;;;;;;;12.00;99.90;;;;;;5083960;28;20398;-70
2022/06/07 04:34:03;;;;;;;;;;;12.00;99.90;;;;;;5080647;28;19931;-71
2022/06/07 04:36:30;;;;;;;;;;;12.10;99.90;;;;;;5083906;28;20383;-71
2022/06/07 04:38:57;;;;;;;;;;;12.10;99.90;;;;;;5080924;28;20013;-71
2022/06/07 04:41:24;;;;;;;;;;;12.20;99.90;;;;;;5088190;28;19924;-71
2022/06/07 04:43:52;;;;;;;;;;;12.30;99.90;;;;;;5084849;28;19977;-71
2022/06/07 04:46:20;;;;;;;;;;;12.40;99.90;;;;;;5086445;28;19962;-71
2022/06/07 04:48:47;;;;;;;;;;;12.50;99.90;;;;;;5070080;28;20455;-70
2022/06/07 04:51:16;;;;;;;;;;;12.50;99.90;;;;;;5100578;28;19939;-70
2022/06/07 04:53:43;;;;;;;;;;;12.60;99.90;;;;;;5090222;28;19985;-70
2022/06/07 04:56:10;;;;;;;;;;;12.80;99.90;;;;;;5095671;28;19924;-70
2022/06/07 04:58:37;;;;;;;;;;;12.90;99.90;;;;;;5076162;28;19924;-70
2022/06/07 05:01:08;;;;;;;;;;;13.10;99.90;;;;;;5106993;28;19930;-70
2022/06/07 05:03:36;;;;;;;;;;;13.20;99.90;;;;;;5076936;28;20010;-70
2022/06/07 05:06:03;;;;;;;;;;;13.20;99.90;;;;;;5076057;28;19967;-71
2022/06/07 05:08:29;;;;;;;;;;;13.40;99.90;;;;;;5090251;28;19964;-71
2022/06/07 05:10:59;;;;;;;;;;;13.50;99.90;;;;;;5099395;28;19931;-70
2022/06/07 05:13:25;;;;;;;;;;;13.80;99.90;;;;;;5085605;28;19925;-71
2022/06/07 05:15:55;;;;;;;;;;;14.10;99.90;;;;;;5076979;28;20015;-70
2022/06/07 05:18:22;;;;;;;;;;;14.20;99.90;;;;;;5088975;28;20024;-71
2022/06/07 05:20:50;;;;;;;;;;;14.40;99.90;;;;;;5104432;28;20030;-70
2022/06/07 05:23:16;;;;;;;;;;;14.60;99.90;;;;;;5095179;28;20030;-70
2022/06/07 05:25:52;;;;;;;;;;;14.60;99.90;;;;;;5090687;28;19971;-70
2022/06/07 05:28:19;;;;;;;;;;;14.70;99.90;;;;;;5095506;28;20034;-70
2022/06/07 05:30:46;;;;;;;;;;;14.70;99.90;;;;;;5076609;28;19923;-67
2022/06/07 05:33:12;;;;;;;;;;;14.80;99.90;;;;;;5087489;28;19924;-68
2022/06/07 05:35:39;;;;;;;;;;;14.90;99.90;;;;;;5086454;28;19971;-68
2022/06/07 05:38:09;;;;;;;;;;;14.90;99.90;;;;;;5089565;28;19975;-70
2022/06/07 05:40:36;;;;;;;;;;;14.90;99.90;;;;;;5087541;28;19932;-69
2022/06/07 05:43:03;;;;;;;;;;;14.90;99.90;;;;;;5073690;28;20033;-69
2022/06/07 05:45:30;;;;;;;;;;;14.90;99.90;;;;;;5084234;28;19924;-70
2022/06/07 05:47:57;;;;;;;;;;;14.90;99.90;;;;;;5073731;28;19947;-69
2022/06/07 05:50:25;;;;;;;;;;;14.90;99.90;;;;;;5081647;28;19924;-69
2022/06/07 05:52:52;;;;;;;;;;;14.90;99.90;;;;;;5077531;28;19969;-69
2022/06/07 05:55:20;;;;;;;;;;;14.90;99.90;;;;;;5082067;28;19924;-69
2022/06/07 05:57:50;;;;;;;;;;;15.00;99.90;;;;;;5080653;28;20287;-69
2022/06/07 06:00:17;;;;;;;;;;;15.10;99.90;;;;;;5090101;28;20018;-68
2022/06/07 06:02:44;;;;;;;;;;;15.20;99.90;;;;;;5087443;28;19979;-69
2022/06/07 06:05:11;;;;;;;;;;;15.20;99.90;;;;;;5078330;28;19924;-68
2022/06/07 06:10:19;;;;;;;;;;;15.20;99.90;;;;;;5082747;28;20007;-68
2022/06/07 06:10:25;;;;;;;;;;;15.30;99.90;;;;;;5085502;28;19939;-68
2022/06/07 06:12:52;;;;;;;;;;;15.40;99.90;;;;;;5084707;28;19931;-68
2022/06/07 06:15:19;;;;;;;;;;;15.40;99.90;;;;;;5093230;28;19982;-68
2022/06/07 06:17:46;;;;;;;;;;;15.50;99.90;;;;;;5083329;28;20011;-69
2022/06/07 06:20:13;;;;;;;;;;;15.50;99.90;;;;;;5078141;28;19932;-68
2022/06/07 06:22:39;;;;;;;;;;;15.50;99.90;;;;;;5088806;28;19995;-69
2022/06/07 06:25:08;;;;;;;;;;;15.60;99.90;;;;;;5084955;28;19924;-68
2022/06/07 06:27:37;;;;;;;;;;;15.60;99.90;;;;;;5095834;28;19924;-69
2022/06/07 06:30:04;;;;;;;;;;;15.60;99.90;;;;;;5073902;28;19931;-69
2022/06/07 06:32:30;;;;;;;;;;;15.70;99.90;;;;;;5083932;28;20191;-69
2022/06/07 06:34:57;;;;;;;;;;;15.90;99.90;;;;;;5089231;28;19931;-68
2022/06/07 06:37:25;;;;;;;;;;;16.00;99.90;;;;;;5082601;28;19975;-68
2022/06/07 06:39:52;;;;;;;;;;;16.00;99.90;;;;;;5084542;28;19924;-68
2022/06/07 06:42:19;;;;;;;;;;;16.10;99.90;;;;;;5080361;28;20255;-69
2022/06/07 06:44:47;;;;;;;;;;;16.10;99.90;;;;;;5088698;28;20010;-67
2022/06/07 06:47:14;;;;;;;;;;;16.20;99.90;;;;;;5092810;28;19935;-69
2022/06/07 06:49:41;;;;;;;;;;;16.30;99.90;;;;;;5082494;28;19959;-69
2022/06/07 06:52:09;;;;;;;;;;;16.30;99.90;;;;;;5083743;28;19964;-69
2022/06/07 06:54:36;;;;;;;;;;;16.30;99.90;;;;;;5080367;28;19924;-68
2022/06/07 06:57:03;;;;;;;;;;;16.40;99.90;;;;;;5082874;28;19959;-68
2022/06/07 06:59:30;;;;;;;;;;;16.40;99.90;;;;;;5084829;28;20279;-68
2022/06/07 07:01:59;;;;;;;;;;;16.40;99.90;;;;;;5085928;28;20305;-68
2022/06/07 07:04:25;;;;;;;;;;;16.40;99.90;;;;;;5082182;28;19924;-68
2022/06/07 07:06:52;;;;;;;;;;;16.50;99.90;;;;;;5079780;28;20047;-68
2022/06/07 07:09:22;;;;;;;;;;;16.70;99.90;;;;;;5084680;28;19982;-68
2022/06/07 07:11:50;;;;;;;;;;;16.80;99.90;;;;;;5082931;28;19928;-68
2022/06/07 07:14:17;;;;;;;;;;;16.90;99.90;;;;;;5081161;28;20377;-68
2022/06/07 07:16:45;;;;;;;;;;;17.00;99.90;;;;;;5084025;28;20015;-68
2022/06/07 07:19:14;;;;;;;;;;;17.00;99.90;;;;;;5078826;28;20006;-68
2022/06/07 07:21:42;;;;;;;;;;;16.90;99.90;;;;;;5086910;28;20022;-67
2022/06/07 07:24:11;;;;;;;;;;;16.90;99.90;;;;;;5080379;28;20283;-67
2022/06/07 07:26:38;;;;;;;;;;;16.90;99.90;;;;;;5084092;28;19954;-68
2022/06/07 07:29:05;;;;;;;;;;;17.00;99.90;;;;;;5077507;28;19928;-68
2022/06/07 07:31:34;;;;;;;;;;;17.10;99.90;;;;;;5084008;28;19924;-68
2022/06/07 07:34:02;;;;;;;;;;;17.10;99.90;;;;;;5084919;28;19979;-68
2022/06/07 07:36:31;;;;;;;;;;;17.10;99.90;;;;;;5080102;28;19967;-66
2022/06/07 07:38:58;;;;;;;;;;;17.30;99.90;;;;;;5079295;28;20016;-69
2022/06/07 07:41:25;;;;;;;;;;;17.50;99.60;;;;;;5080899;28;19934;-69
2022/06/07 07:43:53;;;;;;;;;;;17.60;99.50;;;;;;5083513;28;19924;-69
2022/06/07 07:46:20;;;;;;;;;;;17.60;98.30;;;;;;5085693;28;20014;-69
2022/06/07 07:48:47;;;;;;;;;;;17.50;98.50;;;;;;5084417;28;19960;-68
2022/06/07 07:51:17;;;;;;;;;;;17.60;98.70;;;;;;5081789;28;20019;-68
2022/06/07 07:53:45;;;;;;;;;;;17.70;98.60;;;;;;5081251;28;19931;-68
2022/06/07 07:56:12;;;;;;;;;;;17.80;98.50;;;;;;5075427;28;19997;-69
2022/06/07 07:58:39;;;;;;;;;;;17.80;98.60;;;;;;5080733;28;20107;-68
2022/06/07 08:01:09;;;;;;;;;;;17.80;98.60;;;;;;5084157;28;19956;-69
2022/06/07 08:03:38;;;;;;;;;;;17.60;99.00;;;;;;5072949;28;19932;-69
2022/06/07 08:06:06;;;;;;;;;;;17.70;99.50;;;;;;5078711;28;19940;-69
2022/06/07 08:08:33;;;;;;;;;;;17.70;99.50;;;;;;5063357;28;19928;-68
2022/06/07 08:11:01;;;;;;;;;;;17.90;99.90;;;;;;5078595;28;19928;-68
2022/06/07 08:13:28;;;;;;;;;;;18.10;99.40;;;;;;5077982;28;20327;-68
2022/06/07 08:15:55;;;;;;;;;;;18.00;99.40;;;;;;5079413;28;20014;-67
2022/06/07 08:18:23;;;;;;;;;;;18.00;99.50;;;;;;5075559;28;20013;-68
2022/06/07 08:20:50;;;;;;;;;;;18.10;99.60;;;;;;5082097;28;19924;-68
2022/06/07 08:23:17;;;;;;;;;;;18.30;99.90;;;;;;5084802;28;20011;-68
2022/06/07 08:25:44;;;;;;;;;;;18.90;98.80;;;;;;5071866;28;19928;-68
2022/06/07 08:28:12;;;;;;;;;;;18.90;98.30;;;;;;5079790;28;19925;-68
2022/06/07 08:30:43;;;;;;;;;;;19.00;98.60;;;;;;5086876;28;20027;-68
2022/06/07 08:38:38;;;;;;;;;;;18.80;98.80;;;;;;5084160;28;19939;-68
2022/06/07 08:41:05;;;;;;;;;;;18.80;98.50;;;;;;5089065;28;20380;-68
2022/06/07 08:43:34;;;;;;;;;;;18.70;98.60;;;;;;5092972;28;20387;-69
2022/06/07 08:46:01;;;;;;;;;;;18.60;99.10;;;;;;5086752;28;20010;-68
2022/06/07 08:48:32;;;;;;;;;;;18.70;99.20;;;;;;5086180;28;20357;-68
2022/06/07 08:51:06;;;;;;;;;;;18.80;98.90;;;;;;5088002;28;20271;-68
2022/06/07 08:53:35;;;;;;;;;;;18.80;99.10;;;;;;5086620;28;19968;-68
2022/06/07 08:56:03;;;;;;;;;;;19.00;99.00;;;;;;5074725;28;20027;-68
2022/06/07 08:58:31;;;;;;;;;;;19.30;97.80;;;;;;5083150;28;19928;-68
2022/06/07 09:01:03;;;;;;;;;;;19.50;96.90;;;;;;5082649;28;19932;-69
2022/06/07 09:03:53;;;;;;;;;;;19.50;97.10;;;;;;5082239;28;20079;-69
2022/06/07 09:06:21;;;;;;;;;;;19.60;97.10;;;;;;5079886;28;20087;-68
2022/06/07 09:08:50;;;;;;;;;;;19.80;96.80;;;;;;5086016;28;19928;-67
2022/06/07 09:14:04;;;;;;;;;;;19.50;95.90;;;;;;5089400;28;19938;-68
2022/06/07 09:16:38;;;;;;;;;;;19.20;96.60;;;;;;5082797;28;19985;-68
2022/06/07 09:19:09;;;;;;;;;;;19.20;97.60;;;;;;5079109;28;20449;-68
2022/06/07 09:21:39;;;;;;;;;;;19.40;97.60;;;;;;5088020;28;19924;-68
2022/06/07 09:24:09;;;;;;;;;;;19.40;97.00;;;;;;5082593;28;20018;-69
2022/06/07 09:26:37;;;;;;;;;;;19.40;97.20;;;;;;5089003;28;19971;-68
2022/06/07 09:29:06;;;;;;;;;;;19.10;96.80;;;;;;5087364;28;20014;-68
2022/06/07 09:31:33;;;;;;;;;;;18.90;97.40;;;;;;5087726;28;19954;-69
2022/06/07 09:34:06;;;;;;;;;;;18.80;98.10;;;;;;5087016;28;20401;-67
2022/06/07 09:36:34;;;;;;;;;;;18.90;97.90;;;;;;5086971;28;19932;-67
2022/06/07 09:39:03;;;;;;;;;;;19.00;98.20;;;;;;5088739;28;19978;-68
2022/06/07 09:41:40;;;;;;;;;;;19.20;97.90;;;;;;5081783;28;19924;-68
2022/06/07 09:44:14;;;;;;;;;;;19.10;97.80;;;;;;5086411;28;20385;-68
2022/06/07 09:46:42;;;;;;;;;;;18.90;98.30;;;;;;5088068;28;20373;-68
2022/06/07 09:49:24;;;;;;;;;;;19.00;99.10;;;;;;5084107;28;19923;-68
2022/06/07 09:51:51;;;;;;;;;;;19.00;99.80;;;;;;5088362;28;20017;-68
2022/06/07 09:54:19;;;;;;;;;;;19.10;99.10;;;;;;5082082;28;19931;-69
2022/06/07 09:56:50;;;;;;;;;;;19.10;98.70;;;;;;5084950;28;20329;-68
2022/06/07 09:59:21;;;;;;;;;;;18.90;99.50;;;;;;5082463;28;19932;-68
2022/06/07 10:01:52;;;;;;;;;;;18.80;99.90;;;;;;5087108;28;20307;-68
2022/06/07 10:04:24;;;;;;;;;;;18.70;99.90;;;;;;5083123;28;19932;-68
2022/06/07 10:06:55;;;;;;;;;;;18.30;99.90;;;;;;5087844;28;20028;-68
2022/06/07 10:09:28;;;;;;;;;;;18.00;99.90;;;;;;5086816;28;19924;-68
2022/06/07 10:11:59;;;;;;;;;;;18.10;99.90;;;;;;5081839;28;20031;-68
2022/06/07 10:14:31;;;;;;;;;;;18.10;99.90;;;;;;5085303;28;20022;-68
2022/06/07 10:17:03;;;;;;;;;;;18.00;99.90;;;;;;5087998;28;19973;-68
2022/06/07 10:19:39;;;;;;;;;;;17.90;99.90;;;;;;5083375;28;19947;-68
2022/06/07 10:22:15;;;;;;;;;;;17.70;99.90;;;;;;5078552;28;19932;-68
2022/06/07 10:24:45;;;;;;;;;;;17.80;99.90;;;;;;5086003;28;20335;-69
2022/06/07 10:27:16;;;;;;;;;;;17.80;99.90;;;;;;5084626;28;20377;-68
2022/06/07 10:30:01;;;;;;;;;;;17.90;99.90;;;;;;5087366;28;19970;-69
2022/06/07 10:32:32;;;;;;;;;;;17.80;99.90;;;;;;5073169;28;19925;-67
2022/06/07 10:35:01;;;;;;;;;;;17.80;99.90;;;;;;5074468;28;19924;-68
2022/06/07 10:37:33;;;;;;;;;;;17.80;99.90;;;;;;5084790;28;20391;-68
2022/06/07 10:40:05;;;;;;;;;;;18.10;99.90;;;;;;5086711;28;20402;-66
2022/06/07 10:42:35;;;;;;;;;;;18.20;99.90;;;;;;5093001;28;19935;-67
2022/06/07 10:45:09;;;;;;;;;;;18.30;99.90;;;;;;5094427;28;19924;-67
2022/06/07 10:47:39;;;;;;;;;;;18.20;99.90;;;;;;5088155;28;20026;-67
2022/06/07 10:50:13;;;;;;;;;;;18.00;99.90;;;;;;5089780;28;19931;-67
2022/06/07 10:52:45;;;;;;;;;;;17.90;99.90;;;;;;5084555;28;20026;-67
2022/06/07 10:55:16;;;;;;;;;;;18.00;99.90;;;;;;5078716;28;19924;-66
2022/06/07 10:57:47;;;;;;;;;;;18.10;99.90;;;;;;5077060;28;20379;-66
2022/06/07 11:00:30;;;;;;;;;;;17.90;99.90;;;;;;5082525;28;20016;-67
2022/06/07 11:03:00;;;;;;;;;;;17.80;99.90;;;;;;5084040;28;19931;-65
2022/06/07 11:11:03;;;;;;;;;;;18.10;99.90;;;;;;5088051;28;19935;-67
2022/06/07 11:13:33;;;;;;;;;;;18.40;99.90;;;;;;5085881;28;20651;-67
2022/06/07 11:16:03;;;;;;;;;;;18.60;99.90;;;;;;5085127;28;19931;-67
2022/06/07 11:18:31;;;;;;;;;;;18.50;99.90;;;;;;5085456;28;20023;-67
2022/06/07 11:21:12;;;;;;;;;;;18.40;99.90;;;;;;5081248;28;19924;-67
2022/06/07 11:23:45;;;;;;;;;;;18.20;99.90;;;;;;5082270;28;19932;-67
2022/06/07 11:26:14;;;;;;;;;;;18.50;99.90;;;;;;5087400;28;19939;-68
2022/06/07 11:28:44;;;;;;;;;;;18.70;99.90;;;;;;5082724;28;19936;-67
2022/06/07 11:31:25;;;;;;;;;;;19.10;99.90;;;;;;5074330;28;20280;-67
2022/06/07 11:34:11;;;;;;;;;;;19.10;99.90;;;;;;5086766;28;20011;-67
2022/06/07 11:36:40;;;;;;;;;;;19.00;99.90;;;;;;5086539;28;19932;-67
2022/06/07 11:39:22;;;;;;;;;;;18.80;99.90;;;;;;5084908;28;19928;-67
2022/06/07 11:41:51;;;;;;;;;;;18.90;99.90;;;;;;5088348;28;19978;-67
2022/06/07 11:44:32;;;;;;;;;;;18.90;99.90;;;;;;5084055;28;20323;-67
2022/06/07 11:47:01;;;;;;;;;;;18.80;99.90;;;;;;5082548;28;19936;-67
2022/06/07 11:49:32;;;;;;;;;;;18.80;99.90;;;;;;5086560;28;19932;-67
2022/06/07 11:52:00;;;;;;;;;;;18.60;99.90;;;;;;5092010;28;20015;-67
2022/06/07 11:54:30;;;;;;;;;;;18.70;99.90;;;;;;5084553;28;19935;-67
2022/06/07 11:56:58;;;;;;;;;;;18.80;99.90;;;;;;5089179;28;19947;-67
2022/06/07 11:59:32;;;;;;;;;;;18.90;99.90;;;;;;5078863;28;19986;-67
2022/06/07 12:02:18;;;;;;;;;;;18.80;99.90;;;;;;5101381;28;19935;-67
2022/06/07 12:04:54;;;;;;;;;;;18.50;99.90;;;;;;5093949;28;20348;-66
2022/06/07 12:07:23;;;;;;;;;;;18.60;99.90;;;;;;5079963;28;19925;-67
2022/06/07 12:09:53;;;;;;;;;;;18.70;99.90;;;;;;5084167;28;19931;-66
2022/06/07 12:12:22;;;;;;;;;;;18.90;99.90;;;;;;5089803;28;19930;-67
2022/06/07 12:14:50;;;;;;;;;;;18.90;99.90;;;;;;5081936;28;19924;-67
2022/06/07 12:17:24;;;;;;;;;;;18.80;99.90;;;;;;5077351;28;19959;-67
2022/06/07 12:19:51;;;;;;;;;;;18.70;99.90;;;;;;5082873;28;19962;-67
2022/06/07 12:22:18;;;;;;;;;;;18.70;99.90;;;;;;5087441;28;20391;-67
2022/06/07 12:24:47;;;;;;;;;;;18.60;99.90;;;;;;5080239;28;20018;-68
2022/06/07 12:27:21;;;;;;;;;;;18.60;99.90;;;;;;5090975;28;19939;-66
2022/06/07 12:29:48;;;;;;;;;;;18.60;99.90;;;;;;5089743;28;19924;-67
2022/06/07 12:32:17;;;;;;;;;;;18.60;99.90;;;;;;5081767;28;20018;-66
2022/06/07 12:34:43;;;;;;;;;;;18.90;99.90;;;;;;5088174;28;19928;-67
2022/06/07 12:37:20;;;;;;;;;;;19.00;99.90;;;;;;5089304;28;19960;-67
2022/06/07 12:39:49;;;;;;;;;;;19.00;99.90;;;;;;5086589;28;20010;-67
2022/06/07 12:42:18;;;;;;;;;;;18.80;99.90;;;;;;5086862;28;19924;-67
2022/06/07 12:44:51;;;;;;;;;;;18.70;99.90;;;;;;5085744;28;20363;-67
2022/06/07 12:47:22;;;;;;;;;;;18.50;99.90;;;;;;5081961;28;20052;-67
2022/06/07 12:49:50;;;;;;;;;;;18.40;99.90;;;;;;5088150;28;19931;-67
2022/06/07 12:52:17;;;;;;;;;;;18.70;99.90;;;;;;5075141;28;19990;-67
2022/06/07 12:54:47;;;;;;;;;;;18.80;99.90;;;;;;5078135;28;19928;-67
2022/06/07 12:57:16;;;;;;;;;;;19.10;99.90;;;;;;5085943;28;20030;-66
2022/06/07 12:59:51;;;;;;;;;;;19.40;99.90;;;;;;5086195;28;19924;-67
2022/06/07 13:02:20;;;;;;;;;;;19.50;99.90;;;;;;5093570;28;19924;-67
2022/06/07 13:04:48;;;;;;;;;;;19.70;99.90;;;;;;5096570;28;19924;-67
2022/06/07 13:07:20;;;;;;;;;;;19.80;99.90;;;;;;5078897;28;19956;-67
2022/06/07 13:09:48;;;;;;;;;;;20.00;99.90;;;;;;5089519;28;19924;-67
2022/06/07 13:12:18;;;;;;;;;;;20.30;99.90;;;;;;5087209;28;19936;-67
2022/06/07 13:14:46;;;;;;;;;;;20.30;99.90;;;;;;5094735;28;20015;-67
2022/06/07 13:17:14;;;;;;;;;;;20.20;99.90;;;;;;5090749;28;19924;-67
2022/06/07 13:19:43;;;;;;;;;;;20.20;99.90;;;;;;5088198;28;20023;-67
2022/06/07 13:22:14;;;;;;;;;;;20.40;99.90;;;;;;5086102;28;19924;-68
2022/06/07 13:24:42;;;;;;;;;;;20.50;99.90;;;;;;5080280;28;19935;-68
2022/06/07 13:27:32;;;;;;;;;;;20.70;99.90;;;;;;5073919;28;19931;-67
2022/06/07 13:30:01;;;;;;;;;;;20.50;99.90;;;;;;5086930;28;19924;-68
2022/06/07 13:32:28;;;;;;;;;;;20.50;99.90;;;;;;5093207;28;19982;-67
2022/06/07 13:34:56;;;;;;;;;;;20.80;99.90;;;;;;5097817;28;20026;-67
2022/06/07 13:37:23;;;;;;;;;;;21.00;99.90;;;;;;5089777;28;19924;-67
2022/06/07 13:39:58;;;;;;;;;;;21.20;99.90;;;;;;5077325;28;19974;-65
2022/06/07 13:42:26;;;;;;;;;;;21.50;99.90;;;;;;5077021;28;19931;-67
2022/06/07 13:45:04;;;;;;;;;;;21.70;99.90;;;;;;5081636;28;20015;-67
2022/06/07 13:47:33;;;;;;;;;;;21.80;98.80;;;;;;5082298;28;20346;-66
2022/06/07 13:55:45;;;;;;;;;;;21.10;98.90;;;;;;5098174;28;19931;-67
2022/06/07 13:58:12;;;;;;;;;;;20.90;99.70;;;;;;5073748;28;20322;-68
2022/06/07 14:00:41;;;;;;;;;;;21.10;99.20;;;;;;5089497;28;19924;-67
2022/06/07 14:03:15;;;;;;;;;;;21.20;98.70;;;;;;5081860;28;20448;-67
2022/06/07 14:05:41;;;;;;;;;;;21.50;98.40;;;;;;5077301;28;20283;-67
2022/06/07 14:08:11;;;;;;;;;;;21.30;98.40;;;;;;5076681;28;19946;-67
2022/06/07 14:10:37;;;;;;;;;;;21.40;98.40;;;;;;5074179;28;19929;-67
2022/06/07 14:13:04;;;;;;;;;;;21.50;98.10;;;;;;5082058;28;19931;-67
2022/06/07 14:15:31;;;;;;;;;;;21.70;98.50;;;;;;5080111;28;19924;-67
2022/06/07 14:17:59;;;;;;;;;;;21.80;97.10;;;;;;5072888;28;19928;-67
2022/06/07 14:20:26;;;;;;;;;;;21.80;96.90;;;;;;5078112;28;19931;-67
2022/06/07 14:22:54;;;;;;;;;;;21.80;96.50;;;;;;5078054;28;20383;-67
2022/06/07 14:25:24;;;;;;;;;;;22.30;94.50;;;;;;5065929;28;19955;-68
2022/06/07 14:27:51;;;;;;;;;;;22.10;94.60;;;;;;5074539;28;19924;-67
2022/06/07 14:30:19;;;;;;;;;;;22.00;94.50;;;;;;5084829;28;19968;-68
2022/06/07 14:32:48;;;;;;;;;;;22.10;94.40;;;;;;5086682;28;19947;-67
2022/06/07 14:35:17;;;;;;;;;;;22.10;94.00;;;;;;5081775;28;19983;-67
2022/06/07 14:37:44;;;;;;;;;;;21.80;94.40;;;;;;5085958;28;19928;-67
2022/06/07 14:40:15;;;;;;;;;;;21.70;95.30;;;;;;5080573;28;20027;-67
2022/06/07 14:42:43;;;;;;;;;;;21.80;95.10;;;;;;5082767;28;20023;-68
2022/06/07 14:45:12;;;;;;;;;;;21.90;94.50;;;;;;5077700;28;21146;-67
2022/06/07 14:47:39;;;;;;;;;;;21.80;94.50;;;;;;5084972;28;20022;-66
2022/06/07 14:50:07;;;;;;;;;;;21.50;94.90;;;;;;5082841;28;19924;-66
2022/06/07 14:52:35;;;;;;;;;;;21.40;95.00;;;;;;5080218;28;20027;-67
2022/06/07 14:55:01;;;;;;;;;;;21.30;94.70;;;;;;5079207;28;20362;-66